Meteo Giornale » Osservazioni meteo Stati Uniti (USA) » Winfield-Arkansas City Strother Fld
ore: 23:54 - Osservazioni Meteo Winfield-Arkansas City Strother Fld
Lat. 37° 10' N Lon. 97° 2' W Alt. 353 metri s.l.m.
26 °C
Sereno
Temp. 24 Ore
23 °C
39 °C
Sud/Sud-Est
9.3 Km/h
Dew point 16 °C
Umidità 54 %
Visibilità 10 Km
Il sole sorge alle ore 06:59
Il sole tramonta alle ore 19:57
| Data e Ora | Cielo e Fenomeni | T °C | DP °C | Um. % | Pres. hPa | Vis. km | Vento km/h | |
|---|---|---|---|---|---|---|---|---|
| Ieri h: 23:54 | Sereno | 26 | 16 | 54 | 1016 | 10 | S/SE 9.3 | |
| Ieri h: 22:54 | Sereno | 29 | 16 | 45 | 1015 | 10 | S/SE 14.8 | |
| Ieri h: 21:54 | Sereno | 29 | 15 | 42 | 1015 | 10 | S/SE 11.1 | |
| Ieri h: 20:54 | Sereno | 31 | 15 | 37 | 1014 | 10 | S/SE 13 | |
| Ieri h: 19:54 | Sereno | 33 | 16 | 36 | 1013 | 10 | S/SE 13 | |
| Ieri h: 18:54 | Sereno | 36 | 14 | 26 | 1013 | 10 | S/SE 18.5 | |
| Ieri h: 17:54 | Sereno | 38 | 14 | 24 | 1013 | 10 | S 24 | |
| Ieri h: 16:54 | Sereno | 39 | 13 | 21 | 1013 | 10 | S 22.2 | |
| Ieri h: 15:54 | Sereno | 39 | 14 | 22 | 1014 | 10 | S 27.8 | |
| Ieri h: 14:54 | Sereno | 39 | 13 | 21 | 1014 | 10 | S/SE 24 | |
| Ieri h: 13:54 | Sereno | 38 | 16 | 27 | 1015 | 10 | S/SO 16.7 | |
| Ieri h: 12:54 | Sereno | 38 | 16 | 27 | 1015 | 10 | S 18.5 | |
| Ieri h: 11:54 | Sereno | 36 | 17 | 32 | 1016 | 10 | S/SO 20.3 | |
| Ieri h: 10:54 | Sereno | 34 | 17 | 36 | 1016 | 10 | S 20.3 | |
| Ieri h: 09:54 | Sereno | 31 | 17 | 43 | 1016 | 10 | S/SO 20.3 | |
| Ieri h: 08:54 | Sereno | 28 | 17 | 51 | 1016 | 10 | S/SE 14.8 | |
| Ieri h: 07:54 | Sereno | 25 | 17 | 61 | 1016 | 10 | SE 7.4 | |
| Ieri h: 06:54 | Sereno | 23 | 16 | 64 | 1016 | 10 | S/SE 7.4 | |
| Ieri h: 05:54 | Sereno | 26 | 16 | 54 | 1015 | 10 | SE 9.3 | |
| Ieri h: 04:54 | Sereno | 26 | 15 | 50 | 1015 | 10 | S 9.3 | |
| Ieri h: 03:54 | Sereno | 28 | 16 | 48 | 1014 | 10 | S 14.8 | |
| Ieri h: 02:54 | Sereno | 28 | 16 | 48 | 1014 | 10 | S 14.8 | |
| Ieri h: 01:54 | Sereno | 29 | 16 | 45 | 1014 | 10 | S 16.7 | |
| Ieri h: 00:54 | Sereno | 29 | 16 | 45 | 1013 | 10 | S 22.2 | |



